< < Back
Terminal Aerodrome Forecast


Current Version              Previous Versions:   1  2  3  4  5  6  7  8  9  

Terminal Aerodrome Forecast

393
FTUS42 KJAX 300500
TAFJAX
TAF
KJAX 300520Z 3006/3106 22003KT P6SM SCT100 BKN250
     FM300900 31004KT 6SM BR SCT060 BKN100
     FM301800 35007KT P6SM VCSH FEW035 SCT050 BKN100
     FM302300 01004KT P6SM SCT030 BKN120=

Latest METAR

284
SAUS80 KWBC 301600 CCA
MTRJAX
METAR KJAX 301556Z 32004KT 10SM FEW025 FEW130 24/18 A2998 RMK AO2 SLP153
T02440178


USA.gov is the U.S. government's official web portal to all federal, state and local government web resources and services.